AIC816 VABB-VIDP
Flight info
| Callsign | AIC816 |
|---|---|
| Flight time | 1h 47m |
| Altitude | 41000 |
| Route | ANOLI2A ISRIS Q1 UKASO UKASO6C |
| Aircraft | A359/H-SDE2E3GHIJ3J4J5LM1ORWXY/LB1D1 |
Departure
| Time | 2026-05-07 10:50 |
|---|---|
| Airport | Chhatrapati Shivaji Maharaj International Airport (VABB) |
Arrival
| Time | 2026-05-07 12:37 |
|---|---|
| Airport | Indira Gandhi International Airport (VIDP) |
| Time | Latitude | Longitude | Altitude | Speed | Heading |
|---|---|---|---|---|---|
| 2026-05-07 10:28 | 19.09335 | 72.87028 | 40 ft | 0 kts | 63° |
| 2026-05-07 10:37 | 19.09335 | 72.87027 | 40 ft | 1 kts | 63° |
| 2026-05-07 10:38 | 19.09330 | 72.87017 | 40 ft | 2 kts | 63° |
| 2026-05-07 10:38 | 19.09323 | 72.87003 | 40 ft | 2 kts | 63° |
| 2026-05-07 10:38 | 19.09316 | 72.86988 | 40 ft | 2 kts | 64° |
| 2026-05-07 10:38 | 19.09311 | 72.86972 | 39 ft | 2 kts | 85° |
| 2026-05-07 10:39 | 19.09312 | 72.86956 | 39 ft | 2 kts | 101° |
| 2026-05-07 10:39 | 19.09316 | 72.86940 | 39 ft | 2 kts | 117° |
| 2026-05-07 10:39 | 19.09325 | 72.86927 | 40 ft | 1 kts | 134° |
| 2026-05-07 10:39 | 19.09323 | 72.86929 | 40 ft | 2 kts | 133° |
| 2026-05-07 10:40 | 19.09305 | 72.86949 | 39 ft | 0 kts | 135° |
| 2026-05-07 10:41 | 19.09302 | 72.86952 | 39 ft | 0 kts | 135° |
| 2026-05-07 10:42 | 19.09301 | 72.86953 | 39 ft | 0 kts | 135° |
| 2026-05-07 10:42 | 19.09298 | 72.86956 | 39 ft | 0 kts | 135° |
| 2026-05-07 10:43 | 19.09293 | 72.86962 | 39 ft | 1 kts | 135° |
| 2026-05-07 10:43 | 19.09280 | 72.86975 | 39 ft | 3 kts | 135° |
| 2026-05-07 10:43 | 19.09257 | 72.87003 | 38 ft | 5 kts | 126° |
| 2026-05-07 10:43 | 19.09240 | 72.87048 | 38 ft | 7 kts | 101° |
| 2026-05-07 10:44 | 19.09236 | 72.87107 | 38 ft | 8 kts | 92° |
| 2026-05-07 10:44 | 19.09235 | 72.87175 | 38 ft | 9 kts | 90° |
| 2026-05-07 10:44 | 19.09211 | 72.87241 | 37 ft | 11 kts | 148° |
| 2026-05-07 10:44 | 19.09123 | 72.87260 | 36 ft | 14 kts | 175° |
| 2026-05-07 10:45 | 19.09054 | 72.87323 | 34 ft | 14 kts | 95° |
| 2026-05-07 10:45 | 19.09053 | 72.87437 | 34 ft | 15 kts | 90° |
| 2026-05-07 10:45 | 19.09053 | 72.87547 | 35 ft | 13 kts | 89° |
| 2026-05-07 10:45 | 19.09055 | 72.87640 | 36 ft | 11 kts | 89° |
| 2026-05-07 10:46 | 19.09056 | 72.87724 | 37 ft | 10 kts | 89° |
| 2026-05-07 10:46 | 19.09057 | 72.87801 | 37 ft | 9 kts | 88° |
| 2026-05-07 10:46 | 19.09060 | 72.87871 | 39 ft | 8 kts | 88° |
| 2026-05-07 10:46 | 19.09062 | 72.87931 | 41 ft | 7 kts | 88° |
| 2026-05-07 10:47 | 19.09063 | 72.87983 | 42 ft | 6 kts | 88° |
| 2026-05-07 10:47 | 19.09050 | 72.88023 | 44 ft | 5 kts | 131° |
| 2026-05-07 10:47 | 19.09012 | 72.88046 | 44 ft | 6 kts | 160° |
| 2026-05-07 10:47 | 19.08957 | 72.88055 | 43 ft | 9 kts | 182° |
| 2026-05-07 10:48 | 19.08897 | 72.88017 | 41 ft | 11 kts | 247° |
| 2026-05-07 10:48 | 19.08887 | 72.87927 | 40 ft | 9 kts | 267° |
| 2026-05-07 10:48 | 19.08884 | 72.87851 | 37 ft | 12 kts | 268° |
| 2026-05-07 10:48 | 19.08882 | 72.87751 | 35 ft | 14 kts | 270° |
| 2026-05-07 10:49 | 19.08882 | 72.87635 | 34 ft | 16 kts | 270° |
| 2026-05-07 10:49 | 19.08879 | 72.87474 | 32 ft | 37 kts | 269° |
| 2026-05-07 10:49 | 19.08875 | 72.86966 | 34 ft | 99 kts | 267° |
| 2026-05-07 10:49 | 19.08859 | 72.86030 | 37 ft | 152 kts | 269° |
| 2026-05-07 10:50 | 19.08819 | 72.84843 | 499 ft | 159 kts | 270° |
| 2026-05-07 10:50 | 19.08787 | 72.83667 | 1061 ft | 161 kts | 271° |
| 2026-05-07 10:50 | 19.08767 | 72.82465 | 1621 ft | 165 kts | 272° |
| 2026-05-07 10:50 | 19.08777 | 72.81236 | 2015 ft | 171 kts | 272° |
| 2026-05-07 10:51 | 19.08791 | 72.79915 | 2287 ft | 185 kts | 272° |
| 2026-05-07 10:51 | 19.08774 | 72.78464 | 2523 ft | 204 kts | 272° |
| 2026-05-07 10:51 | 19.08776 | 72.76891 | 2874 ft | 220 kts | 271° |
| 2026-05-07 10:51 | 19.08742 | 72.75214 | 3248 ft | 235 kts | 272° |
| 2026-05-07 10:52 | 19.09064 | 72.73460 | 3594 ft | 250 kts | 298° |
| 2026-05-07 10:52 | 19.10247 | 72.72025 | 4030 ft | 262 kts | 328° |
| 2026-05-07 10:52 | 19.11985 | 72.71406 | 4680 ft | 268 kts | 358° |
| 2026-05-07 10:52 | 19.13816 | 72.71797 | 5383 ft | 273 kts | 27° |
| 2026-05-07 10:53 | 19.15229 | 72.73134 | 6118 ft | 278 kts | 54° |
| 2026-05-07 10:53 | 19.16348 | 72.74819 | 6920 ft | 279 kts | 46° |
| 2026-05-07 10:53 | 19.17959 | 72.75980 | 7645 ft | 281 kts | 16° |
| 2026-05-07 10:53 | 19.19896 | 72.76353 | 8434 ft | 283 kts | 8° |
| 2026-05-07 10:54 | 19.21880 | 72.76611 | 9156 ft | 288 kts | 7° |
| 2026-05-07 10:54 | 19.23891 | 72.76853 | 9864 ft | 292 kts | 7° |
| 2026-05-07 10:54 | 19.25960 | 72.77097 | 10406 ft | 303 kts | 7° |
| 2026-05-07 10:54 | 19.28150 | 72.77352 | 10784 ft | 319 kts | 6° |
| 2026-05-07 10:55 | 19.30482 | 72.77622 | 11146 ft | 336 kts | 6° |
| 2026-05-07 10:55 | 19.32903 | 72.77902 | 11481 ft | 352 kts | 6° |
| 2026-05-07 10:55 | 19.35429 | 72.78194 | 11821 ft | 367 kts | 6° |
| 2026-05-07 10:55 | 19.38056 | 72.78496 | 12387 ft | 375 kts | 6° |
| 2026-05-07 10:56 | 19.40687 | 72.78799 | 13071 ft | 378 kts | 6° |
| 2026-05-07 10:56 | 19.43386 | 72.79110 | 13758 ft | 382 kts | 6° |
| 2026-05-07 10:56 | 19.46081 | 72.79422 | 14418 ft | 386 kts | 6° |
| 2026-05-07 10:56 | 19.48830 | 72.79740 | 15067 ft | 389 kts | 6° |
| 2026-05-07 10:57 | 19.51589 | 72.80061 | 15704 ft | 393 kts | 6° |
| 2026-05-07 10:57 | 19.54371 | 72.80383 | 16333 ft | 397 kts | 7° |
| 2026-05-07 10:57 | 19.57153 | 72.80707 | 16947 ft | 401 kts | 7° |
| 2026-05-07 10:57 | 19.59994 | 72.81036 | 17559 ft | 404 kts | 7° |
| 2026-05-07 10:58 | 19.62837 | 72.81368 | 18156 ft | 408 kts | 7° |
| 2026-05-07 10:58 | 19.65739 | 72.81705 | 18751 ft | 412 kts | 7° |
| 2026-05-07 10:58 | 19.68659 | 72.82045 | 19336 ft | 415 kts | 7° |
| 2026-05-07 10:58 | 19.71525 | 72.82378 | 19899 ft | 419 kts | 7° |
| 2026-05-07 10:59 | 19.74456 | 72.82720 | 20462 ft | 423 kts | 7° |
| 2026-05-07 10:59 | 19.77440 | 72.83067 | 21025 ft | 426 kts | 7° |
| 2026-05-07 10:59 | 19.80403 | 72.83413 | 21572 ft | 430 kts | 6° |
| 2026-05-07 10:59 | 19.83306 | 72.83752 | 22095 ft | 433 kts | 6° |
| 2026-05-07 11:00 | 19.86381 | 72.84110 | 22633 ft | 437 kts | 6° |
| 2026-05-07 11:00 | 19.89657 | 72.84493 | 23189 ft | 440 kts | 6° |
| 2026-05-07 11:00 | 19.92806 | 72.84860 | 23699 ft | 444 kts | 6° |
| 2026-05-07 11:00 | 19.95914 | 72.85223 | 24181 ft | 447 kts | 6° |
| 2026-05-07 11:01 | 19.99056 | 72.85590 | 24650 ft | 450 kts | 6° |
| 2026-05-07 11:01 | 20.02226 | 72.85961 | 25105 ft | 454 kts | 6° |
| 2026-05-07 11:01 | 20.05432 | 72.86336 | 25544 ft | 457 kts | 6° |
| 2026-05-07 11:01 | 20.08653 | 72.86713 | 25966 ft | 460 kts | 6° |
| 2026-05-07 11:02 | 20.11898 | 72.87092 | 26375 ft | 463 kts | 6° |
| 2026-05-07 11:02 | 20.15127 | 72.87469 | 26768 ft | 466 kts | 6° |
| 2026-05-07 11:02 | 20.18408 | 72.87851 | 27154 ft | 469 kts | 6° |
| 2026-05-07 11:02 | 20.21722 | 72.88238 | 27533 ft | 471 kts | 6° |
| 2026-05-07 11:03 | 20.25034 | 72.88626 | 27900 ft | 474 kts | 6° |
| 2026-05-07 11:03 | 20.28359 | 72.89016 | 28254 ft | 476 kts | 6° |
| 2026-05-07 11:03 | 20.31746 | 72.89414 | 28600 ft | 479 kts | 6° |
| 2026-05-07 11:03 | 20.35098 | 72.89807 | 28929 ft | 481 kts | 6° |
| 2026-05-07 11:04 | 20.38493 | 72.90205 | 29251 ft | 484 kts | 6° |
| 2026-05-07 11:04 | 20.41900 | 72.90607 | 29563 ft | 486 kts | 6° |
| 2026-05-07 11:04 | 20.45298 | 72.91007 | 29864 ft | 488 kts | 6° |
| 2026-05-07 11:04 | 20.48716 | 72.91409 | 30157 ft | 490 kts | 6° |
| 2026-05-07 11:05 | 20.52172 | 72.91816 | 30444 ft | 492 kts | 6° |
| 2026-05-07 11:05 | 20.55644 | 72.92226 | 30723 ft | 494 kts | 6° |
| 2026-05-07 11:05 | 20.59101 | 72.92634 | 30998 ft | 495 kts | 6° |
| 2026-05-07 11:05 | 20.62555 | 72.93043 | 31362 ft | 495 kts | 6° |
| 2026-05-07 11:06 | 20.66016 | 72.93454 | 31771 ft | 493 kts | 6° |
| 2026-05-07 11:06 | 20.69491 | 72.93866 | 32173 ft | 491 kts | 6° |
| 2026-05-07 11:06 | 20.72926 | 72.94273 | 32550 ft | 490 kts | 6° |
| 2026-05-07 11:06 | 20.76338 | 72.94600 | 32910 ft | 489 kts | 3° |
| 2026-05-07 11:07 | 20.79800 | 72.94778 | 33267 ft | 488 kts | 2° |
| 2026-05-07 11:07 | 20.83222 | 72.94907 | 33612 ft | 487 kts | 1° |
| 2026-05-07 11:07 | 20.86661 | 72.95027 | 33952 ft | 485 kts | 1° |
| 2026-05-07 11:07 | 20.90100 | 72.95146 | 34284 ft | 484 kts | 1° |
| 2026-05-07 11:08 | 20.93495 | 72.95267 | 34602 ft | 483 kts | 1° |
| 2026-05-07 11:08 | 20.96915 | 72.95390 | 34912 ft | 482 kts | 1° |
| 2026-05-07 11:08 | 21.00326 | 72.95517 | 35206 ft | 482 kts | 1° |
| 2026-05-07 11:08 | 21.03686 | 72.95644 | 35484 ft | 481 kts | 0° |
| 2026-05-07 11:09 | 21.07097 | 72.95770 | 35781 ft | 480 kts | 0° |
| 2026-05-07 11:09 | 21.10481 | 72.95924 | 36111 ft | 478 kts | 1° |
| 2026-05-07 11:09 | 21.13802 | 72.96238 | 36467 ft | 475 kts | 4° |
| 2026-05-07 11:09 | 21.17091 | 72.96735 | 36779 ft | 474 kts | 7° |
| 2026-05-07 11:10 | 21.20402 | 72.97433 | 37014 ft | 474 kts | 11° |
| 2026-05-07 11:10 | 21.23667 | 72.98324 | 37202 ft | 476 kts | 14° |
| 2026-05-07 11:10 | 21.26869 | 72.99401 | 37374 ft | 477 kts | 17° |
| 2026-05-07 11:10 | 21.30028 | 73.00598 | 37548 ft | 478 kts | 18° |
| 2026-05-07 11:11 | 21.33191 | 73.01826 | 37720 ft | 478 kts | 18° |
| 2026-05-07 11:11 | 21.36384 | 73.03071 | 37884 ft | 478 kts | 18° |
| 2026-05-07 11:11 | 21.39533 | 73.04295 | 38038 ft | 479 kts | 18° |
| 2026-05-07 11:11 | 21.42711 | 73.05528 | 38190 ft | 479 kts | 18° |
| 2026-05-07 11:12 | 21.45918 | 73.06770 | 38340 ft | 480 kts | 18° |
| 2026-05-07 11:12 | 21.49082 | 73.07995 | 38485 ft | 480 kts | 18° |
| 2026-05-07 11:12 | 21.52261 | 73.09225 | 38629 ft | 480 kts | 18° |
| 2026-05-07 11:12 | 21.55445 | 73.10457 | 38766 ft | 480 kts | 18° |
| 2026-05-07 11:13 | 21.58643 | 73.11694 | 38894 ft | 481 kts | 18° |
| 2026-05-07 11:13 | 21.61828 | 73.12928 | 39003 ft | 482 kts | 18° |
| 2026-05-07 11:13 | 21.68257 | 73.15419 | 39198 ft | 484 kts | 18° |
| 2026-05-07 11:14 | 21.74679 | 73.17906 | 39377 ft | 485 kts | 18° |
| 2026-05-07 11:14 | 21.81136 | 73.20404 | 39548 ft | 487 kts | 18° |
| 2026-05-07 11:15 | 21.87585 | 73.22907 | 39717 ft | 488 kts | 18° |
| 2026-05-07 11:15 | 21.94118 | 73.25449 | 39893 ft | 489 kts | 18° |
| 2026-05-07 11:16 | 22.00596 | 73.27972 | 40068 ft | 490 kts | 18° |
| 2026-05-07 11:16 | 22.07137 | 73.30523 | 40219 ft | 491 kts | 18° |
| 2026-05-07 11:17 | 22.13617 | 73.33048 | 40356 ft | 492 kts | 18° |
| 2026-05-07 11:17 | 22.20146 | 73.35587 | 40486 ft | 493 kts | 18° |
| 2026-05-07 11:18 | 22.26702 | 73.38145 | 40608 ft | 493 kts | 18° |
| 2026-05-07 11:18 | 22.33264 | 73.40712 | 40711 ft | 494 kts | 18° |
| 2026-05-07 11:19 | 22.39836 | 73.43287 | 40715 ft | 495 kts | 18° |
| 2026-05-07 11:19 | 22.46402 | 73.45862 | 40717 ft | 497 kts | 18° |
| 2026-05-07 11:20 | 22.53045 | 73.48470 | 40717 ft | 500 kts | 18° |
| 2026-05-07 11:20 | 22.59667 | 73.51073 | 40717 ft | 502 kts | 18° |
| 2026-05-07 11:21 | 22.66308 | 73.53685 | 40717 ft | 504 kts | 18° |
| 2026-05-07 11:21 | 22.73037 | 73.56335 | 40717 ft | 506 kts | 18° |
| 2026-05-07 11:22 | 22.79728 | 73.58974 | 40717 ft | 507 kts | 18° |
| 2026-05-07 11:22 | 22.86450 | 73.61627 | 40717 ft | 508 kts | 18° |
| 2026-05-07 11:23 | 22.93128 | 73.64266 | 40717 ft | 509 kts | 18° |
| 2026-05-07 11:23 | 22.99744 | 73.66901 | 40717 ft | 509 kts | 18° |
| 2026-05-07 11:24 | 23.06356 | 73.69549 | 40717 ft | 509 kts | 18° |
| 2026-05-07 11:24 | 23.12916 | 73.72156 | 40716 ft | 509 kts | 18° |
| 2026-05-07 11:25 | 23.19496 | 73.74758 | 40716 ft | 509 kts | 18° |
| 2026-05-07 11:25 | 23.26082 | 73.77368 | 40716 ft | 509 kts | 18° |
| 2026-05-07 11:26 | 23.32666 | 73.79984 | 40716 ft | 510 kts | 18° |
| 2026-05-07 11:26 | 23.39248 | 73.82603 | 40717 ft | 510 kts | 18° |
| 2026-05-07 11:27 | 23.46007 | 73.85296 | 40727 ft | 510 kts | 18° |
| 2026-05-07 11:27 | 23.52744 | 73.87985 | 40750 ft | 509 kts | 18° |
| 2026-05-07 11:28 | 23.59528 | 73.90695 | 40774 ft | 509 kts | 18° |
| 2026-05-07 11:28 | 23.66265 | 73.93388 | 40787 ft | 509 kts | 18° |
| 2026-05-07 11:29 | 23.72983 | 73.96078 | 40793 ft | 509 kts | 18° |
| 2026-05-07 11:29 | 23.79744 | 73.98787 | 40795 ft | 509 kts | 18° |
| 2026-05-07 11:30 | 23.86513 | 74.01502 | 40797 ft | 510 kts | 18° |
| 2026-05-07 11:30 | 23.93277 | 74.04218 | 40797 ft | 510 kts | 18° |
| 2026-05-07 11:31 | 24.00038 | 74.06934 | 40795 ft | 510 kts | 18° |
| 2026-05-07 11:31 | 24.06756 | 74.09638 | 40795 ft | 510 kts | 18° |
| 2026-05-07 11:32 | 24.16896 | 74.13715 | 40797 ft | 510 kts | 18° |
| 2026-05-07 11:33 | 24.23692 | 74.16448 | 40795 ft | 511 kts | 18° |
| 2026-05-07 11:33 | 24.30411 | 74.19159 | 40796 ft | 511 kts | 18° |
| 2026-05-07 11:34 | 24.37169 | 74.21892 | 40797 ft | 511 kts | 18° |
| 2026-05-07 11:34 | 24.43956 | 74.24640 | 40797 ft | 511 kts | 18° |
| 2026-05-07 11:35 | 24.50876 | 74.27445 | 40797 ft | 511 kts | 18° |
| 2026-05-07 11:35 | 24.57768 | 74.30243 | 40796 ft | 511 kts | 18° |
| 2026-05-07 11:36 | 24.64624 | 74.33030 | 40797 ft | 511 kts | 18° |
| 2026-05-07 11:36 | 24.71741 | 74.35925 | 40797 ft | 512 kts | 18° |
| 2026-05-07 11:37 | 24.78849 | 74.38820 | 40796 ft | 512 kts | 18° |
| 2026-05-07 11:37 | 24.86001 | 74.41737 | 40796 ft | 512 kts | 18° |
| 2026-05-07 11:38 | 24.93188 | 74.44672 | 40795 ft | 512 kts | 18° |
| 2026-05-07 11:38 | 25.00355 | 74.47606 | 40796 ft | 512 kts | 17° |
| 2026-05-07 11:39 | 25.07445 | 74.50517 | 40795 ft | 513 kts | 17° |
| 2026-05-07 11:39 | 25.14230 | 74.53294 | 40797 ft | 514 kts | 16° |
| 2026-05-07 11:40 | 25.21005 | 74.56055 | 40796 ft | 514 kts | 16° |
| 2026-05-07 11:40 | 25.27769 | 74.58826 | 40797 ft | 515 kts | 16° |
| 2026-05-07 11:41 | 25.34554 | 74.61613 | 40796 ft | 516 kts | 16° |
| 2026-05-07 11:41 | 25.41314 | 74.64397 | 40795 ft | 516 kts | 16° |
| 2026-05-07 11:42 | 25.48248 | 74.67278 | 40795 ft | 516 kts | 17° |
| 2026-05-07 11:42 | 25.55303 | 74.70219 | 40796 ft | 516 kts | 17° |
| 2026-05-07 11:43 | 25.62281 | 74.73113 | 40796 ft | 516 kts | 17° |
| 2026-05-07 11:43 | 25.69174 | 74.75968 | 40797 ft | 516 kts | 17° |
| 2026-05-07 11:44 | 25.76239 | 74.78896 | 40796 ft | 516 kts | 17° |
| 2026-05-07 11:44 | 25.83045 | 74.81721 | 40797 ft | 516 kts | 17° |
| 2026-05-07 11:45 | 25.89889 | 74.84563 | 40797 ft | 516 kts | 16° |
| 2026-05-07 11:45 | 25.96706 | 74.87397 | 40796 ft | 516 kts | 17° |
| 2026-05-07 11:46 | 26.03503 | 74.90228 | 40797 ft | 516 kts | 16° |
| 2026-05-07 11:46 | 26.10331 | 74.93075 | 40797 ft | 516 kts | 17° |
| 2026-05-07 11:47 | 26.17176 | 74.95922 | 40796 ft | 517 kts | 16° |
| 2026-05-07 11:47 | 26.23992 | 74.98766 | 40797 ft | 517 kts | 17° |
| 2026-05-07 11:48 | 26.30825 | 75.01627 | 40797 ft | 517 kts | 17° |
| 2026-05-07 11:48 | 26.37643 | 75.04486 | 40796 ft | 517 kts | 17° |
| 2026-05-07 11:49 | 26.44491 | 75.07363 | 40796 ft | 517 kts | 16° |
| 2026-05-07 11:49 | 26.51342 | 75.10226 | 40797 ft | 518 kts | 16° |
| 2026-05-07 11:50 | 26.58265 | 75.13123 | 40795 ft | 518 kts | 16° |
| 2026-05-07 11:50 | 26.64978 | 75.15948 | 40794 ft | 501 kts | 16° |
| 2026-05-07 11:51 | 26.71597 | 75.18724 | 40796 ft | 499 kts | 16° |
| 2026-05-07 11:51 | 26.78206 | 75.21493 | 40795 ft | 499 kts | 16° |
| 2026-05-07 11:52 | 26.84765 | 75.24250 | 40797 ft | 499 kts | 16° |
| 2026-05-07 11:52 | 26.91344 | 75.27026 | 40796 ft | 498 kts | 16° |
| 2026-05-07 11:53 | 26.97949 | 75.29820 | 40796 ft | 497 kts | 15° |
| 2026-05-07 11:53 | 27.04497 | 75.32589 | 40796 ft | 496 kts | 14° |
| 2026-05-07 11:54 | 27.11054 | 75.35356 | 40772 ft | 494 kts | 15° |
| 2026-05-07 11:54 | 27.14268 | 75.36826 | 40404 ft | 497 kts | 18° |
| 2026-05-07 11:54 | 27.17440 | 75.38534 | 39513 ft | 507 kts | 22° |
| 2026-05-07 11:54 | 27.20593 | 75.40543 | 38407 ft | 513 kts | 26° |
| 2026-05-07 11:55 | 27.23608 | 75.42793 | 37215 ft | 519 kts | 30° |
| 2026-05-07 11:55 | 27.26474 | 75.45275 | 36132 ft | 521 kts | 34° |
| 2026-05-07 11:55 | 27.29230 | 75.48023 | 35364 ft | 522 kts | 38° |
| 2026-05-07 11:55 | 27.31893 | 75.50925 | 34582 ft | 524 kts | 39° |
| 2026-05-07 11:56 | 27.34514 | 75.53849 | 33808 ft | 525 kts | 40° |
| 2026-05-07 11:56 | 27.37126 | 75.56770 | 33036 ft | 526 kts | 40° |
| 2026-05-07 11:56 | 27.39788 | 75.59739 | 32290 ft | 525 kts | 39° |
| 2026-05-07 11:56 | 27.42404 | 75.62649 | 31567 ft | 524 kts | 39° |
| 2026-05-07 11:57 | 27.45012 | 75.65543 | 30872 ft | 521 kts | 40° |
| 2026-05-07 11:57 | 27.47656 | 75.68489 | 30223 ft | 517 kts | 40° |
| 2026-05-07 11:57 | 27.50219 | 75.71351 | 29878 ft | 507 kts | 40° |
| 2026-05-07 11:57 | 27.52752 | 75.74176 | 29357 ft | 501 kts | 40° |
| 2026-05-07 11:58 | 27.55230 | 75.76929 | 28861 ft | 496 kts | 40° |
| 2026-05-07 11:58 | 27.57731 | 75.79704 | 28275 ft | 492 kts | 40° |
| 2026-05-07 11:58 | 27.60182 | 75.82418 | 27790 ft | 486 kts | 38° |
| 2026-05-07 11:58 | 27.62812 | 75.84849 | 27262 ft | 475 kts | 30° |
| 2026-05-07 11:59 | 27.65661 | 75.86756 | 26693 ft | 465 kts | 21° |
| 2026-05-07 11:59 | 27.68691 | 75.88132 | 26211 ft | 453 kts | 13° |
| 2026-05-07 11:59 | 27.71666 | 75.89165 | 25760 ft | 446 kts | 11° |
| 2026-05-07 11:59 | 27.74701 | 75.90157 | 25321 ft | 440 kts | 11° |
| 2026-05-07 12:00 | 27.77643 | 75.91115 | 24858 ft | 436 kts | 11° |
| 2026-05-07 12:00 | 27.80556 | 75.92072 | 24388 ft | 431 kts | 12° |
| 2026-05-07 12:00 | 27.83141 | 75.92930 | 24000 ft | 427 kts | 12° |
| 2026-05-07 12:00 | 27.85950 | 75.93870 | 23584 ft | 422 kts | 12° |
| 2026-05-07 12:01 | 27.88754 | 75.94813 | 23173 ft | 417 kts | 12° |
| 2026-05-07 12:01 | 27.91507 | 75.95740 | 22765 ft | 412 kts | 12° |
| 2026-05-07 12:01 | 27.94272 | 75.96674 | 22341 ft | 408 kts | 12° |
| 2026-05-07 12:01 | 27.96988 | 75.97591 | 21911 ft | 404 kts | 12° |
| 2026-05-07 12:02 | 27.99728 | 75.98518 | 21486 ft | 401 kts | 12° |
| 2026-05-07 12:02 | 28.02319 | 75.99394 | 21087 ft | 397 kts | 12° |
| 2026-05-07 12:02 | 28.04956 | 76.00288 | 20671 ft | 394 kts | 12° |
| 2026-05-07 12:02 | 28.07564 | 76.01173 | 20510 ft | 381 kts | 12° |
| 2026-05-07 12:03 | 28.10072 | 76.02028 | 20398 ft | 368 kts | 12° |
| 2026-05-07 12:03 | 28.12483 | 76.02846 | 20274 ft | 357 kts | 12° |
| 2026-05-07 12:03 | 28.14846 | 76.03647 | 20087 ft | 348 kts | 12° |
| 2026-05-07 12:03 | 28.17151 | 76.04428 | 20012 ft | 335 kts | 12° |
| 2026-05-07 12:04 | 28.19357 | 76.05177 | 19938 ft | 324 kts | 12° |
| 2026-05-07 12:04 | 28.21467 | 76.06097 | 19833 ft | 321 kts | 26° |
| 2026-05-07 12:04 | 28.23226 | 76.07726 | 19657 ft | 329 kts | 45° |
| 2026-05-07 12:04 | 28.24475 | 76.09946 | 19329 ft | 334 kts | 57° |
| 2026-05-07 12:05 | 28.25527 | 76.12318 | 19028 ft | 332 kts | 59° |
| 2026-05-07 12:05 | 28.26538 | 76.14675 | 18734 ft | 330 kts | 59° |
| 2026-05-07 12:05 | 28.27556 | 76.17038 | 18438 ft | 328 kts | 59° |
| 2026-05-07 12:05 | 28.28561 | 76.19347 | 18154 ft | 326 kts | 59° |
| 2026-05-07 12:06 | 28.29597 | 76.21712 | 17861 ft | 324 kts | 59° |
| 2026-05-07 12:06 | 28.30607 | 76.24010 | 17578 ft | 322 kts | 59° |
| 2026-05-07 12:06 | 28.31618 | 76.26302 | 17294 ft | 320 kts | 59° |
| 2026-05-07 12:06 | 28.32627 | 76.28589 | 17005 ft | 318 kts | 59° |
| 2026-05-07 12:07 | 28.33637 | 76.30878 | 16716 ft | 316 kts | 59° |
| 2026-05-07 12:07 | 28.34642 | 76.33155 | 16430 ft | 314 kts | 59° |
| 2026-05-07 12:07 | 28.35639 | 76.35416 | 16143 ft | 313 kts | 59° |
| 2026-05-07 12:07 | 28.36640 | 76.37687 | 15855 ft | 311 kts | 59° |
| 2026-05-07 12:08 | 28.37646 | 76.39969 | 15565 ft | 309 kts | 59° |
| 2026-05-07 12:08 | 28.38630 | 76.42203 | 15280 ft | 308 kts | 59° |
| 2026-05-07 12:08 | 28.39623 | 76.44458 | 14990 ft | 306 kts | 59° |
| 2026-05-07 12:08 | 28.40601 | 76.46681 | 14704 ft | 305 kts | 59° |
| 2026-05-07 12:09 | 28.41580 | 76.48910 | 14417 ft | 303 kts | 59° |
| 2026-05-07 12:09 | 28.42551 | 76.51118 | 14130 ft | 302 kts | 59° |
| 2026-05-07 12:09 | 28.43520 | 76.53326 | 13845 ft | 300 kts | 59° |
| 2026-05-07 12:09 | 28.44468 | 76.55486 | 13566 ft | 298 kts | 59° |
| 2026-05-07 12:10 | 28.45407 | 76.57629 | 13290 ft | 297 kts | 59° |
| 2026-05-07 12:10 | 28.46355 | 76.59792 | 13008 ft | 295 kts | 59° |
| 2026-05-07 12:10 | 28.47279 | 76.61902 | 12731 ft | 294 kts | 59° |
| 2026-05-07 12:10 | 28.48209 | 76.64028 | 12453 ft | 292 kts | 60° |
| 2026-05-07 12:11 | 28.49133 | 76.66143 | 12175 ft | 291 kts | 60° |
| 2026-05-07 12:11 | 28.50040 | 76.68231 | 11901 ft | 289 kts | 60° |
| 2026-05-07 12:11 | 28.50914 | 76.70242 | 11815 ft | 280 kts | 60° |
| 2026-05-07 12:11 | 28.51656 | 76.72269 | 11744 ft | 274 kts | 74° |
| 2026-05-07 12:12 | 28.51765 | 76.74451 | 11526 ft | 278 kts | 96° |
| 2026-05-07 12:12 | 28.51373 | 76.76602 | 11281 ft | 276 kts | 101° |
| 2026-05-07 12:12 | 28.50890 | 76.78738 | 11048 ft | 274 kts | 102° |
| 2026-05-07 12:12 | 28.50410 | 76.80830 | 10834 ft | 270 kts | 101° |
| 2026-05-07 12:13 | 28.49946 | 76.82905 | 10782 ft | 264 kts | 101° |
| 2026-05-07 12:13 | 28.49503 | 76.84929 | 10776 ft | 262 kts | 101° |
| 2026-05-07 12:13 | 28.49103 | 76.86784 | 10774 ft | 261 kts | 101° |
| 2026-05-07 12:13 | 28.48670 | 76.88802 | 10773 ft | 260 kts | 101° |
| 2026-05-07 12:14 | 28.48242 | 76.90803 | 10767 ft | 253 kts | 101° |
| 2026-05-07 12:14 | 28.47834 | 76.92703 | 10765 ft | 240 kts | 101° |
| 2026-05-07 12:14 | 28.47440 | 76.94545 | 10770 ft | 237 kts | 101° |
| 2026-05-07 12:14 | 28.47051 | 76.96369 | 10771 ft | 237 kts | 101° |
| 2026-05-07 12:15 | 28.46668 | 76.98158 | 10701 ft | 233 kts | 101° |
| 2026-05-07 12:15 | 28.46280 | 76.99969 | 10420 ft | 233 kts | 101° |
| 2026-05-07 12:15 | 28.46003 | 77.01260 | 10217 ft | 233 kts | 101° |
| 2026-05-07 12:15 | 28.45621 | 77.03043 | 9959 ft | 232 kts | 102° |
| 2026-05-07 12:16 | 28.45234 | 77.04843 | 9702 ft | 230 kts | 102° |
| 2026-05-07 12:16 | 28.44854 | 77.06606 | 9448 ft | 229 kts | 102° |
| 2026-05-07 12:16 | 28.44474 | 77.08361 | 9192 ft | 227 kts | 101° |
| 2026-05-07 12:16 | 28.44099 | 77.10102 | 8940 ft | 226 kts | 101° |
| 2026-05-07 12:17 | 28.43719 | 77.11871 | 8684 ft | 225 kts | 101° |
| 2026-05-07 12:17 | 28.43344 | 77.13612 | 8432 ft | 224 kts | 101° |
| 2026-05-07 12:17 | 28.42975 | 77.15324 | 8182 ft | 222 kts | 101° |
| 2026-05-07 12:17 | 28.42605 | 77.17042 | 7939 ft | 221 kts | 101° |
| 2026-05-07 12:18 | 28.42238 | 77.18748 | 7697 ft | 220 kts | 101° |
| 2026-05-07 12:18 | 28.41874 | 77.20435 | 7459 ft | 219 kts | 101° |
| 2026-05-07 12:18 | 28.41512 | 77.22117 | 7214 ft | 217 kts | 101° |
| 2026-05-07 12:18 | 28.41144 | 77.23819 | 6968 ft | 217 kts | 101° |
| 2026-05-07 12:19 | 28.40781 | 77.25494 | 6723 ft | 216 kts | 101° |
| 2026-05-07 12:19 | 28.40471 | 77.27180 | 6477 ft | 213 kts | 88° |
| 2026-05-07 12:19 | 28.40939 | 77.28730 | 6182 ft | 206 kts | 43° |
| 2026-05-07 12:19 | 28.42205 | 77.29432 | 5856 ft | 203 kts | 9° |
| 2026-05-07 12:20 | 28.43645 | 77.29571 | 5548 ft | 200 kts | 6° |
| 2026-05-07 12:20 | 28.45028 | 77.29718 | 5245 ft | 196 kts | 8° |
| 2026-05-07 12:20 | 28.46386 | 77.29942 | 4949 ft | 193 kts | 11° |
| 2026-05-07 12:20 | 28.47753 | 77.30221 | 4647 ft | 189 kts | 13° |
| 2026-05-07 12:21 | 28.49064 | 77.30445 | 4377 ft | 186 kts | 357° |
| 2026-05-07 12:21 | 28.50223 | 77.29761 | 4027 ft | 193 kts | 306° |
| 2026-05-07 12:21 | 28.50637 | 77.28273 | 3698 ft | 197 kts | 278° |
| 2026-05-07 12:21 | 28.50739 | 77.26703 | 3384 ft | 196 kts | 276° |
| 2026-05-07 12:22 | 28.50889 | 77.25127 | 3064 ft | 196 kts | 280° |
| 2026-05-07 12:22 | 28.51115 | 77.23583 | 2781 ft | 194 kts | 283° |
| 2026-05-07 12:22 | 28.51398 | 77.22052 | 2614 ft | 194 kts | 285° |
| 2026-05-07 12:22 | 28.51592 | 77.21094 | 2614 ft | 190 kts | 286° |
| 2026-05-07 12:23 | 28.51814 | 77.20008 | 2611 ft | 181 kts | 287° |
| 2026-05-07 12:23 | 28.52225 | 77.18656 | 2596 ft | 177 kts | 297° |
| 2026-05-07 12:23 | 28.52750 | 77.17370 | 2696 ft | 176 kts | 299° |
| 2026-05-07 12:23 | 28.53297 | 77.16084 | 2693 ft | 176 kts | 298° |
| 2026-05-07 12:24 | 28.53832 | 77.14784 | 2697 ft | 177 kts | 297° |
| 2026-05-07 12:24 | 28.54095 | 77.13409 | 2672 ft | 180 kts | 261° |
| 2026-05-07 12:24 | 28.53511 | 77.12143 | 2702 ft | 180 kts | 225° |
| 2026-05-07 12:24 | 28.52561 | 77.11146 | 2706 ft | 180 kts | 218° |
| 2026-05-07 12:25 | 28.51556 | 77.10268 | 2688 ft | 179 kts | 204° |
| 2026-05-07 12:25 | 28.50362 | 77.10080 | 2674 ft | 170 kts | 158° |
| 2026-05-07 12:25 | 28.49750 | 77.10444 | 2694 ft | 165 kts | 133° |
| 2026-05-07 12:26 | 28.49290 | 77.11018 | 2717 ft | 162 kts | 123° |
| 2026-05-07 12:27 | 28.48668 | 77.12082 | 2707 ft | 160 kts | 117° |
| 2026-05-07 12:27 | 28.48068 | 77.13192 | 2698 ft | 160 kts | 117° |
| 2026-05-07 12:27 | 28.47485 | 77.14301 | 2703 ft | 162 kts | 117° |
| 2026-05-07 12:27 | 28.46895 | 77.15411 | 2627 ft | 160 kts | 117° |
| 2026-05-07 12:28 | 28.46276 | 77.16573 | 2623 ft | 173 kts | 118° |
| 2026-05-07 12:28 | 28.45640 | 77.17791 | 2611 ft | 177 kts | 116° |
| 2026-05-07 12:28 | 28.45539 | 77.17986 | 2609 ft | 176 kts | 117° |
| 2026-05-07 12:29 | 28.44931 | 77.19157 | 2598 ft | 176 kts | 117° |
| 2026-05-07 12:29 | 28.44426 | 77.20448 | 2582 ft | 173 kts | 93° |
| 2026-05-07 12:30 | 28.44743 | 77.21762 | 2589 ft | 173 kts | 51° |
| 2026-05-07 12:30 | 28.45705 | 77.22631 | 2611 ft | 173 kts | 37° |
| 2026-05-07 12:30 | 28.46719 | 77.23386 | 2597 ft | 173 kts | 34° |
| 2026-05-07 12:30 | 28.47680 | 77.24246 | 2578 ft | 171 kts | 57° |
| 2026-05-07 12:31 | 28.47943 | 77.25550 | 2595 ft | 172 kts | 95° |
| 2026-05-07 12:31 | 28.47674 | 77.26948 | 2600 ft | 175 kts | 103° |
| 2026-05-07 12:31 | 28.47315 | 77.28276 | 2599 ft | 168 kts | 105° |
| 2026-05-07 12:31 | 28.47189 | 77.29537 | 2553 ft | 155 kts | 69° |
| 2026-05-07 12:32 | 28.47870 | 77.30502 | 2605 ft | 156 kts | 39° |
| 2026-05-07 12:32 | 28.48764 | 77.31226 | 2594 ft | 156 kts | 37° |
| 2026-05-07 12:32 | 28.49668 | 77.31943 | 2597 ft | 156 kts | 37° |
| 2026-05-07 12:32 | 28.50699 | 77.32373 | 2554 ft | 163 kts | 354° |
| 2026-05-07 12:33 | 28.51985 | 77.30215 | 2619 ft | 180 kts | 281° |
| 2026-05-07 12:33 | 28.52166 | 77.28796 | 2599 ft | 178 kts | 281° |
| 2026-05-07 12:33 | 28.52395 | 77.27381 | 2597 ft | 179 kts | 286° |
| 2026-05-07 12:34 | 28.52688 | 77.25970 | 2597 ft | 177 kts | 287° |
| 2026-05-07 12:34 | 28.53002 | 77.24598 | 2592 ft | 173 kts | 289° |
| 2026-05-07 12:34 | 28.53301 | 77.23320 | 2586 ft | 159 kts | 287° |
| 2026-05-07 12:34 | 28.53588 | 77.22087 | 2559 ft | 160 kts | 288° |
| 2026-05-07 12:35 | 28.53877 | 77.20842 | 2341 ft | 159 kts | 289° |
| 2026-05-07 12:35 | 28.54165 | 77.19595 | 2134 ft | 159 kts | 287° |
| 2026-05-07 12:35 | 28.54446 | 77.18366 | 1917 ft | 159 kts | 287° |
| 2026-05-07 12:35 | 28.54730 | 77.17130 | 1691 ft | 158 kts | 288° |
| 2026-05-07 12:36 | 28.55016 | 77.15888 | 1487 ft | 157 kts | 287° |
| 2026-05-07 12:36 | 28.55298 | 77.14667 | 1270 ft | 158 kts | 287° |
| 2026-05-07 12:36 | 28.55580 | 77.13442 | 1050 ft | 158 kts | 287° |
| 2026-05-07 12:36 | 28.55864 | 77.12209 | 835 ft | 158 kts | 287° |
| 2026-05-07 12:37 | 28.56129 | 77.11045 | 790 ft | 128 kts | 284° |
| 2026-05-07 12:37 | 28.56311 | 77.10252 | 790 ft | 74 kts | 284° |
| 2026-05-07 12:37 | 28.56398 | 77.09879 | 790 ft | 20 kts | 283° |
| 2026-05-07 12:37 | 28.56417 | 77.09783 | 790 ft | 12 kts | 283° |
| 2026-05-07 12:38 | 28.56438 | 77.09684 | 790 ft | 13 kts | 283° |
| 2026-05-07 12:38 | 28.56456 | 77.09572 | 790 ft | 15 kts | 272° |
| 2026-05-07 12:38 | 28.56449 | 77.09466 | 790 ft | 16 kts | 261° |
| 2026-05-07 12:38 | 28.56420 | 77.09326 | 790 ft | 18 kts | 254° |
| 2026-05-07 12:39 | 28.56378 | 77.09177 | 790 ft | 20 kts | 243° |
| 2026-05-07 12:39 | 28.56272 | 77.09057 | 790 ft | 22 kts | 215° |
| 2026-05-07 12:39 | 28.56157 | 77.08970 | 790 ft | 18 kts | 213° |
| 2026-05-07 12:39 | 28.56091 | 77.08874 | 790 ft | 11 kts | 222° |
| 2026-05-07 12:40 | 28.56055 | 77.08853 | 790 ft | 0 kts | 193° |